ETSA Airport Information

Runway Information
Runway 07 Length 6777 ft width 98 ft
Elevation 2035 ft Threshold 0 ft Heading 72
Runway 25 Length 6777 ft Width 98 ft
Elevation 2043 ft Threshold 0 ft Heading 252
Airport Frequencies
Type ACC Name MUNCHEN CO Frequency 129.45 MHZ
Type OPS Name WING OPS Frequency 142.85 MHZ
Type RDR Name RADAR Frequency 34.4 MHZ
Type RDR Name RADAR Frequency 123.3 MHZ
Type TWR Name TWR Frequency 122.1 MHZ
Airport Navaids
Type TACAN Name Landsberg Frequency 112150 KHZ
Type NDB Name Landsberg Frequency 448 KHZ
Airport Weather Information & NOTAM
ADDS - METARS form results

(0653 UTC 20 January 2018)
 
METAR text: ETSA 200620Z AUTO 22010KT //// // ////// 00/M03 Q1011 ///
Conditions at: ETSA (LANDSBERG (GER-A, DE) observed 0620 UTC 20 January 2018
Temperature: 0.0°C (32°F)
Dewpoint: -3.0°C (27°F) [RH = 80%]
Pressure (altimeter): 29.85 inches Hg (1011.0 mb)
Winds: from the SW (220 degrees) at 12 MPH (10 knots; 5.2 m/s)
Visibility: missing
Ceiling: unknown
Clouds: missing
Weather: no significant weather observed at this time